Tampa, Florida
Traffic Map
Current Weather Conditions
Tampa, Florida
Few Clouds
Few Clouds
88°
Feels Like: 96°
Wind Chill: 88° Ceiling: Unl
Heat Index: 96° Visibility: 10mi
Dew Point: 73° Wind: 7mph
Humidity: 61% Direction: 300° (WNW)
Pressure: 30.03in Gusts: 0mph
Raw Report DataKTPA 182353Z 30006KT 10SM FEW045TCU FEW230 FEW300 31/23 A3003 RMK AO2 SLP169 CB DSNT SE-S TCU NE-S T03110228 10339 20311 56002
Traffic Incident Summary
Active as of:
Severity:
Category:
InformationThere was an issue retrieving the traffic information for this location. Please try a different location or try again shortly.
Advertisements